Time;durP1;ratioP1;P1;durP2;ratioP2;P2;SDS_P1;SDS_P2;PMS_P1;PMS_P2;Temp;Humidity;BMP_temperature;BMP_pressure;BME280_temperature;BME280_humidity;BME280_pressure;Samples;Min_cycle;Max_cycle;Signal;HPM_P1;HPM_P2
2023/11/09 00:01:00;;;;;;;6.80;3.20;;;;;;;5.63;79.51;96647.05;108602;1275;22527;-73
2023/11/09 00:03:51;;;;;;;6.90;3.40;;;;;;;5.59;79.65;96651.63;108576;1272;22524;-73
2023/11/09 00:06:22;;;;;;;6.70;3.60;;;;;;;5.56;79.66;96654.80;108612;1274;22525;-73
2023/11/09 00:08:53;;;;;;;6.60;3.20;;;;;;;5.55;79.91;96654.58;108578;1275;23803;-72
2023/11/09 00:11:24;;;;;;;6.00;3.30;;;;;;;5.52;80.01;96651.98;108556;1275;25361;-73
2023/11/09 00:13:55;;;;;;;5.00;3.00;;;;;;;5.51;80.06;96654.38;108571;1271;24481;-73
2023/11/09 00:16:27;;;;;;;6.00;2.80;;;;;;;5.48;80.21;96654.17;108608;1275;22536;-73
2023/11/09 00:19:00;;;;;;;4.90;3.20;;;;;;;5.47;80.42;96651.98;108581;1253;22539;-73
2023/11/09 00:21:31;;;;;;;6.10;2.70;;;;;;;5.46;80.32;96651.73;108588;1268;22643;-72
2023/11/09 00:24:03;;;;;;;9.30;3.00;;;;;;;5.46;80.44;96656.03;108610;1275;22517;-72
2023/11/09 00:26:34;;;;;;;5.20;2.50;;;;;;;5.44;80.60;96655.85;108603;1267;22735;-73
2023/11/09 00:29:05;;;;;;;6.70;3.20;;;;;;;5.43;80.41;96657.80;108570;1275;22574;-73
2023/11/09 00:31:37;;;;;;;8.30;3.10;;;;;;;5.40;80.44;96658.91;108583;1275;22548;-74
2023/11/09 00:34:09;;;;;;;5.00;2.40;;;;;;;5.33;80.61;96658.14;108590;1275;22515;-73
2023/11/09 00:36:41;;;;;;;6.20;3.10;;;;;;;5.30;80.59;96662.73;108570;1275;22538;-73
2023/11/09 00:39:17;;;;;;;5.20;2.90;;;;;;;5.25;80.63;96660.46;108684;1275;24323;-72
2023/11/09 00:41:48;;;;;;;5.20;2.90;;;;;;;5.23;80.79;96662.80;108532;1275;22639;-73
2023/11/09 00:44:19;;;;;;;5.20;2.90;;;;;;;5.21;81.06;96665.40;108600;1273;22548;-73
2023/11/09 00:46:50;;;;;;;5.30;2.60;;;;;;;5.17;80.96;96664.59;108623;1275;22584;-73
2023/11/09 00:49:22;;;;;;;6.50;2.50;;;;;;;5.11;80.93;96664.31;108619;1265;22528;-73
2023/11/09 00:51:53;;;;;;;8.00;3.60;;;;;;;5.06;81.13;96659.51;108566;1275;23009;-73
2023/11/09 00:54:24;;;;;;;5.80;3.10;;;;;;;5.01;81.30;96660.11;108608;1269;22521;-73
2023/11/09 00:56:55;;;;;;;5.20;2.90;;;;;;;4.98;81.57;96657.98;108593;1267;22588;-73
2023/11/09 00:59:26;;;;;;;5.70;3.10;;;;;;;4.95;81.45;96658.52;108589;1275;22557;-72
2023/11/09 01:01:57;;;;;;;6.20;3.10;;;;;;;4.92;81.74;96658.30;108577;1275;24492;-72
2023/11/09 01:04:28;;;;;;;7.30;3.20;;;;;;;4.87;81.76;96663.95;108620;1275;22604;-73
2023/11/09 01:07:00;;;;;;;7.30;3.00;;;;;;;4.84;81.79;96658.45;108602;1269;22625;-72
2023/11/09 01:09:33;;;;;;;4.80;2.40;;;;;;;4.84;82.12;96658.62;108627;1267;22529;-73
2023/11/09 01:12:04;;;;;;;7.80;3.20;;;;;;;4.81;82.15;96657.89;108538;1275;22527;-73
2023/11/09 01:14:35;;;;;;;5.30;2.60;;;;;;;4.76;82.16;96658.54;108598;1274;22997;-72
2023/11/09 01:17:07;;;;;;;5.00;3.10;;;;;;;4.74;82.43;96655.52;108627;1269;22625;-73
2023/11/09 01:19:39;;;;;;;6.70;3.20;;;;;;;4.75;82.67;96657.73;108603;1275;22665;-73
2023/11/09 01:22:10;;;;;;;5.00;3.00;;;;;;;4.75;82.77;96659.84;108569;1275;24224;-73
2023/11/09 01:24:41;;;;;;;4.70;2.60;;;;;;;4.75;82.90;96649.80;108594;1269;23127;-72
2023/11/09 01:27:12;;;;;;;4.00;2.30;;;;;;;4.75;83.08;96652.91;108568;1267;22550;-72
2023/11/09 01:29:44;;;;;;;6.20;2.90;;;;;;;4.75;83.14;96650.70;108586;1275;22563;-73
2023/11/09 01:32:15;;;;;;;3.70;2.00;;;;;;;4.72;82.92;96649.40;108552;1273;22616;-73
2023/11/09 01:34:46;;;;;;;6.10;2.80;;;;;;;4.70;83.27;96650.79;108630;1268;22550;-73
2023/11/09 01:37:17;;;;;;;7.20;3.30;;;;;;;4.70;83.28;96648.33;108602;1268;22579;-73
2023/11/09 01:39:48;;;;;;;6.00;2.90;;;;;;;4.67;83.30;96653.59;108568;1275;25336;-72
2023/11/09 01:42:20;;;;;;;5.70;2.90;;;;;;;4.64;83.41;96651.95;108616;1274;29421;-73
2023/11/09 01:44:51;;;;;;;4.90;2.80;;;;;;;4.61;83.50;96647.44;108626;1274;25261;-73
2023/11/09 01:47:22;;;;;;;3.80;2.70;;;;;;;4.59;83.54;96651.92;108572;1271;22540;-72
2023/11/09 01:49:53;;;;;;;4.50;2.60;;;;;;;4.54;83.65;96649.13;108593;1275;24195;-72
2023/11/09 01:52:25;;;;;;;6.00;2.90;;;;;;;4.50;83.61;96649.47;108503;1274;22590;-72
2023/11/09 01:54:56;;;;;;;6.30;2.70;;;;;;;4.45;83.68;96649.55;108598;1274;23320;-73
2023/11/09 01:57:28;;;;;;;3.90;2.60;;;;;;;4.43;84.03;96652.89;108629;1275;23381;-73
2023/11/09 02:00:00;;;;;;;7.30;3.10;;;;;;;4.41;83.91;96645.71;108571;1268;22524;-72
2023/11/09 02:02:32;;;;;;;4.50;2.50;;;;;;;4.40;83.99;96642.55;108590;1267;22606;-72
2023/11/09 02:05:04;;;;;;;4.60;2.40;;;;;;;4.41;84.18;96642.29;108624;1274;22539;-73
2023/11/09 02:07:38;;;;;;;5.60;2.80;;;;;;;4.39;84.34;96636.61;108636;1268;22742;-72
2023/11/09 02:10:13;;;;;;;5.30;2.70;;;;;;;4.42;84.54;96636.86;108599;1275;24250;-72
2023/11/09 02:12:44;;;;;;;3.60;2.20;;;;;;;4.42;84.51;96639.22;108581;1269;22519;-73
2023/11/09 02:15:15;;;;;;;5.00;2.20;;;;;;;4.43;84.72;96637.08;108614;1275;22547;-72
2023/11/09 02:17:48;;;;;;;6.00;3.00;;;;;;;4.43;84.76;96637.76;108615;1275;22534;-72
2023/11/09 02:20:19;;;;;;;4.10;2.80;;;;;;;4.41;84.79;96637.67;108601;1275;23589;-73
2023/11/09 02:22:53;;;;;;;4.30;2.70;;;;;;;4.39;84.90;96635.44;108591;1275;22645;-73
2023/11/09 02:25:25;;;;;;;4.80;2.40;;;;;;;4.34;84.83;96632.58;108636;1275;22577;-73
2023/11/09 02:27:56;;;;;;;5.30;2.50;;;;;;;4.32;84.89;96635.46;108597;1267;22544;-72
2023/11/09 02:30:27;;;;;;;3.00;2.10;;;;;;;4.29;84.98;96633.85;108628;1268;22587;-73
2023/11/09 02:32:58;;;;;;;5.70;2.70;;;;;;;4.26;85.04;96639.42;108596;1275;22694;-72
2023/11/09 02:35:29;;;;;;;3.10;2.00;;;;;;;4.23;85.13;96639.11;108588;1271;22510;-72
2023/11/09 02:38:00;;;;;;;5.40;2.40;;;;;;;4.22;85.26;96636.09;108593;1272;25348;-73
2023/11/09 02:40:31;;;;;;;4.20;2.80;;;;;;;4.22;85.36;96629.06;108575;1269;22588;-72
2023/11/09 02:43:03;;;;;;;7.70;3.10;;;;;;;4.24;85.38;96629.33;108545;1275;22546;-73
2023/11/09 02:45:35;;;;;;;5.10;2.70;;;;;;;4.22;85.53;96629.80;108600;1275;22521;-72
2023/11/09 02:48:07;;;;;;;3.70;2.00;;;;;;;4.21;85.43;96623.73;108626;1275;22606;-72
2023/11/09 02:50:38;;;;;;;6.80;2.70;;;;;;;4.21;85.55;96626.10;108565;1275;22528;-73
2023/11/09 02:53:10;;;;;;;4.20;2.30;;;;;;;4.21;85.64;96627.15;108560;1267;22524;-72
2023/11/09 02:55:41;;;;;;;4.70;2.50;;;;;;;4.20;85.70;96632.02;108611;1275;22589;-72
2023/11/09 02:58:12;;;;;;;4.30;2.10;;;;;;;4.17;85.60;96626.30;108579;1275;24293;-72
2023/11/09 03:00:45;;;;;;;4.00;2.50;;;;;;;4.16;85.69;96624.40;108605;1267;22527;-73
2023/11/09 03:03:16;;;;;;;3.30;2.10;;;;;;;4.15;85.76;96629.52;108612;1275;22603;-72
2023/11/09 03:05:47;;;;;;;3.60;2.20;;;;;;;4.12;85.89;96628.02;108580;1271;22517;-73
2023/11/09 03:08:21;;;;;;;4.60;2.60;;;;;;;4.11;85.95;96622.49;108621;1267;25402;-72
2023/11/09 03:10:52;;;;;;;6.10;2.30;;;;;;;4.11;86.00;96624.96;108600;1275;24145;-72
2023/11/09 03:13:24;;;;;;;4.50;1.90;;;;;;;4.12;85.94;96626.13;108533;1275;22531;-73
2023/11/09 03:15:55;;;;;;;3.20;1.90;;;;;;;4.13;86.01;96631.33;108525;1267;22539;-73
2023/11/09 03:18:26;;;;;;;3.10;2.00;;;;;;;4.16;86.21;96628.71;108620;1275;22561;-73
2023/11/09 03:20:57;;;;;;;3.70;2.30;;;;;;;4.19;86.25;96628.02;108646;1274;24222;-72
2023/11/09 03:23:28;;;;;;;4.10;1.80;;;;;;;4.20;86.25;96628.08;108574;1275;23087;-73
2023/11/09 03:25:59;;;;;;;3.30;1.90;;;;;;;4.24;86.34;96621.86;108623;1275;22514;-73
2023/11/09 03:28:31;;;;;;;3.50;1.60;;;;;;;4.27;86.35;96622.75;108593;1269;22535;-73
2023/11/09 03:31:04;;;;;;;3.80;2.00;;;;;;;4.28;86.48;96614.05;108569;1272;22542;-73
2023/11/09 03:33:35;;;;;;;4.40;2.20;;;;;;;4.32;86.64;96616.36;108559;1271;25333;-73
2023/11/09 03:36:07;;;;;;;2.90;1.80;;;;;;;4.33;86.54;96612.70;108610;1268;24873;-73
2023/11/09 03:38:39;;;;;;;2.80;1.50;;;;;;;4.36;86.63;96615.58;108575;1269;22651;-73
2023/11/09 03:41:14;;;;;;;4.20;1.80;;;;;;;4.35;86.70;96613.20;108601;1275;22524;-73
2023/11/09 03:43:45;;;;;;;2.80;2.20;;;;;;;4.34;86.59;96609.61;108604;1275;22556;-72
2023/11/09 03:46:16;;;;;;;3.70;1.90;;;;;;;4.32;86.64;96611.80;108587;1268;22534;-73
2023/11/09 03:48:47;;;;;;;5.90;2.00;;;;;;;4.30;86.53;96609.56;108648;1275;22550;-73
2023/11/09 03:51:18;;;;;;;3.90;2.10;;;;;;;4.27;86.42;96612.25;108587;1275;23581;-73
2023/11/09 03:53:49;;;;;;;3.60;1.90;;;;;;;4.25;86.51;96615.06;108586;1275;25536;-73
2023/11/09 03:56:22;;;;;;;3.80;2.00;;;;;;;4.23;86.54;96613.56;108665;1269;22586;-73
2023/11/09 03:58:54;;;;;;;3.80;1.80;;;;;;;4.25;86.70;96614.52;108694;1268;22556;-72
2023/11/09 04:01:25;;;;;;;5.10;2.00;;;;;;;4.25;86.47;96615.00;108582;1275;24374;-74
2023/11/09 04:03:56;;;;;;;4.50;3.00;;;;;;;4.23;86.59;96614.66;108621;1267;22540;-73
2023/11/09 04:06:27;;;;;;;3.30;2.00;;;;;;;4.20;86.51;96610.34;108631;1275;24354;-72
2023/11/09 04:08:58;;;;;;;4.10;2.40;;;;;;;4.16;86.33;96608.45;108616;1275;25382;-73
2023/11/09 04:11:29;;;;;;;3.10;1.90;;;;;;;4.13;86.40;96604.37;108537;1275;22566;-73
2023/11/09 04:14:00;;;;;;;4.10;2.10;;;;;;;4.13;86.61;96602.74;108577;1272;22580;-73
2023/11/09 04:16:31;;;;;;;4.10;2.10;;;;;;;4.13;86.47;96600.02;108611;1275;22582;-73
2023/11/09 04:19:02;;;;;;;4.00;2.20;;;;;;;4.13;86.54;96600.48;108567;1275;23527;-72
2023/11/09 04:21:33;;;;;;;4.80;2.50;;;;;;;4.14;86.56;96603.86;108590;1275;22975;-73
2023/11/09 04:24:06;;;;;;;3.70;2.00;;;;;;;4.14;86.40;96601.85;108564;1275;22574;-73
2023/11/09 04:26:37;;;;;;;3.90;2.10;;;;;;;4.13;86.37;96604.41;108635;1267;24926;-73
2023/11/09 04:29:10;;;;;;;5.40;1.90;;;;;;;4.11;86.33;96609.75;108575;1269;25376;-73
2023/11/09 04:31:47;;;;;;;4.90;2.30;;;;;;;4.08;86.22;96604.80;108619;1275;24230;-72
2023/11/09 04:34:19;;;;;;;4.60;1.80;;;;;;;4.04;86.16;96605.94;108573;1267;22543;-73
2023/11/09 04:36:52;;;;;;;4.60;2.00;;;;;;;4.03;86.16;96605.33;108650;1268;22600;-72
2023/11/09 04:39:30;;;;;;;4.30;1.80;;;;;;;4.03;86.25;96604.39;108579;1269;22523;-72
2023/11/09 04:42:04;;;;;;;7.60;2.10;;;;;;;4.02;86.18;96606.52;108570;1271;22558;-73
2023/11/09 04:44:37;;;;;;;4.00;2.10;;;;;;;4.00;86.17;96604.67;108597;1275;22968;-72
2023/11/09 04:47:11;;;;;;;3.30;1.90;;;;;;;4.02;86.34;96604.06;108613;1271;22549;-73
2023/11/09 04:49:46;;;;;;;7.30;2.20;;;;;;;4.06;86.34;96603.77;108559;1275;23478;-72
2023/11/09 04:52:19;;;;;;;3.20;1.80;;;;;;;4.09;86.35;96601.04;108601;1275;25307;-72
2023/11/09 04:54:57;;;;;;;6.00;2.20;;;;;;;4.12;86.21;96595.73;108647;1269;22549;-73
2023/11/09 05:08:57;;;;;;;5.60;2.20;;;;;;;4.20;85.97;96585.20;108595;1275;22535;-73
2023/11/09 05:11:28;;;;;;;3.60;1.70;;;;;;;4.21;86.02;96583.75;108560;1269;22540;-73
2023/11/09 05:13:59;;;;;;;3.40;1.90;;;;;;;4.19;86.01;96585.61;108596;1271;22522;-73
2023/11/09 05:16:30;;;;;;;4.80;2.10;;;;;;;4.17;85.99;96587.80;108610;1275;22543;-73
2023/11/09 05:19:02;;;;;;;3.00;1.90;;;;;;;4.18;86.04;96586.08;108621;1275;22522;-73
2023/11/09 05:21:34;;;;;;;4.10;2.20;;;;;;;4.13;85.97;96587.21;108607;1274;22528;-73
2023/11/09 05:24:05;;;;;;;3.90;2.30;;;;;;;4.09;85.92;96583.64;108602;1275;22517;-73
2023/11/09 05:26:38;;;;;;;5.90;1.60;;;;;;;4.13;85.86;96578.55;108584;1275;22509;-73
2023/11/09 05:29:10;;;;;;;4.00;2.20;;;;;;;4.10;85.86;96581.55;108602;1269;22688;-73
2023/11/09 05:31:42;;;;;;;4.30;1.90;;;;;;;4.07;85.84;96582.91;108588;1268;22538;-73
2023/11/09 05:34:15;;;;;;;4.70;2.00;;;;;;;4.08;86.02;96578.83;108609;1272;22515;-73
2023/11/09 05:36:46;;;;;;;2.70;1.60;;;;;;;4.28;86.14;96585.39;108608;1275;22520;-73
2023/11/09 05:39:18;;;;;;;4.20;2.20;;;;;;;4.26;85.64;96586.20;108595;1275;26449;-73
2023/11/09 05:41:51;;;;;;;2.80;1.40;;;;;;;4.21;85.51;96586.05;108564;1253;22996;-73
2023/11/09 05:44:23;;;;;;;2.70;1.60;;;;;;;4.20;85.56;96590.23;108621;1275;25573;-73
2023/11/09 05:46:55;;;;;;;4.90;3.10;;;;;;;4.21;85.50;96591.35;108601;1275;22524;-73
2023/11/09 05:49:26;;;;;;;3.90;2.10;;;;;;;4.18;85.33;96590.00;108622;1269;22526;-73
2023/11/09 05:51:57;;;;;;;3.60;2.00;;;;;;;4.17;85.35;96589.63;108587;1275;22531;-73
2023/11/09 05:54:29;;;;;;;4.10;1.90;;;;;;;4.14;85.35;96587.80;108586;1275;22534;-73
2023/11/09 05:57:01;;;;;;;5.30;3.10;;;;;;;4.12;85.28;96584.52;108628;1272;22664;-73
2023/11/09 05:59:33;;;;;;;5.70;2.30;;;;;;;4.14;85.33;96577.83;108580;1275;22555;-73
2023/11/09 06:02:07;;;;;;;4.20;2.20;;;;;;;4.20;85.42;96578.85;108603;1274;22521;-73
2023/11/09 06:04:41;;;;;;;8.10;2.50;;;;;;;4.25;85.28;96574.80;108583;1275;22541;-73
2023/11/09 06:07:13;;;;;;;4.90;2.20;;;;;;;4.35;85.26;96578.63;108560;1269;22521;-73
2023/11/09 06:09:45;;;;;;;5.60;1.80;;;;;;;4.47;85.17;96574.66;108627;1275;22520;-74
2023/11/09 06:12:16;;;;;;;5.10;2.00;;;;;;;4.62;85.16;96573.42;108493;1274;26622;-73
2023/11/09 06:14:48;;;;;;;3.20;1.80;;;;;;;4.80;84.79;96573.20;108571;1275;22540;-73
2023/11/09 06:17:19;;;;;;;3.70;1.80;;;;;;;5.00;84.58;96575.15;108600;1275;22539;-73
2023/11/09 06:19:51;;;;;;;3.90;2.00;;;;;;;5.28;84.21;96574.44;108574;1267;23443;-73
2023/11/09 06:22:23;;;;;;;3.60;2.10;;;;;;;5.60;83.77;96572.48;108569;1268;22520;-73
2023/11/09 06:24:54;;;;;;;2.50;1.70;;;;;;;5.95;83.20;96574.02;108637;1275;22530;-74
2023/11/09 06:27:25;;;;;;;3.10;1.80;;;;;;;6.15;82.56;96575.39;108591;1275;22608;-74
2023/11/09 06:29:57;;;;;;;4.50;2.00;;;;;;;6.33;82.08;96576.66;108640;1275;22529;-73
2023/11/09 06:32:30;;;;;;;3.50;1.90;;;;;;;6.63;81.38;96580.73;108559;1275;22528;-74
2023/11/09 06:35:03;;;;;;;3.00;1.20;;;;;;;6.88;80.77;96580.63;108584;1269;23010;-74
2023/11/09 06:37:35;;;;;;;2.50;1.50;;;;;;;7.20;80.09;96575.67;108605;1275;22576;-74
2023/11/09 06:40:10;;;;;;;2.50;1.10;;;;;;;7.69;79.49;96573.36;108575;1275;24158;-73
2023/11/09 06:42:42;;;;;;;2.80;1.60;;;;;;;8.04;77.96;96571.41;108557;1269;26427;-73
2023/11/09 06:45:14;;;;;;;3.70;1.40;;;;;;;8.38;77.22;96567.33;108621;1271;25333;-74
2023/11/09 06:47:45;;;;;;;3.60;1.70;;;;;;;8.73;76.14;96566.52;108596;1275;22556;-74
2023/11/09 06:50:19;;;;;;;3.10;1.70;;;;;;;8.87;75.00;96567.92;108572;1275;24133;-73
2023/11/09 06:52:52;;;;;;;2.30;1.70;;;;;;;9.17;74.33;96568.54;108593;1275;22630;-74
2023/11/09 06:55:24;;;;;;;2.50;1.60;;;;;;;9.45;73.39;96559.38;108601;1271;22507;-74
2023/11/09 06:57:55;;;;;;;5.10;1.50;;;;;;;9.81;72.44;96555.10;108625;1275;22734;-73
2023/11/09 07:00:26;;;;;;;4.70;1.60;;;;;;;9.92;71.08;96559.54;108607;1267;22545;-73
2023/11/09 07:02:58;;;;;;;3.00;1.50;;;;;;;10.08;70.17;96561.70;108486;1275;22517;-74
2023/11/09 07:05:30;;;;;;;3.50;1.70;;;;;;;10.10;69.30;96566.04;108617;1267;22560;-74
2023/11/09 07:08:01;;;;;;;2.60;1.40;;;;;;;10.33;68.93;96562.41;108585;1275;23372;-74
2023/11/09 07:10:33;;;;;;;3.60;1.50;;;;;;;10.57;68.36;96562.00;108563;1275;22854;-74
2023/11/09 07:13:05;;;;;;;2.00;1.30;;;;;;;10.74;67.19;96557.44;108556;1273;22563;-74
2023/11/09 07:15:39;;;;;;;3.00;1.70;;;;;;;10.71;66.48;96553.17;108587;1267;22532;-74
2023/11/09 07:18:10;;;;;;;3.20;1.90;;;;;;;10.82;66.00;96552.73;108601;1275;23705;-74
2023/11/09 07:20:42;;;;;;;2.70;1.50;;;;;;;11.05;65.52;96553.77;108638;1269;24399;-73
2023/11/09 07:23:13;;;;;;;4.00;2.00;;;;;;;10.87;64.16;96557.20;108659;1275;22992;-73
2023/11/09 07:25:45;;;;;;;4.90;1.50;;;;;;;10.66;63.89;96560.58;108702;1275;22602;-74
2023/11/09 07:28:17;;;;;;;1.90;1.40;;;;;;;10.66;63.54;96556.98;108699;1275;22550;-74
2023/11/09 07:30:51;;;;;;;3.00;1.30;;;;;;;10.94;63.80;96556.17;108714;1272;24301;-73
2023/11/09 07:33:22;;;;;;;2.90;1.40;;;;;;;11.25;63.55;96554.73;108712;1272;22521;-73
2023/11/09 07:35:56;;;;;;;2.50;1.50;;;;;;;11.17;62.50;96558.41;108722;1275;22524;-73
2023/11/09 07:38:28;;;;;;;2.00;1.40;;;;;;;11.00;62.35;96557.65;108808;1259;22521;-73
2023/11/09 07:40:59;;;;;;;4.30;1.40;;;;;;;11.08;62.04;96557.83;108683;1267;22527;-74
2023/11/09 07:43:31;;;;;;;3.00;1.50;;;;;;;10.72;60.69;96557.35;108694;1272;22514;-73
2023/11/09 07:46:03;;;;;;;3.40;2.00;;;;;;;10.43;60.42;96551.67;108693;1275;22715;-73
2023/11/09 07:48:34;;;;;;;3.50;1.40;;;;;;;10.73;61.51;96551.28;108711;1275;22535;-73
2023/11/09 07:51:06;;;;;;;2.30;1.10;;;;;;;11.03;60.51;96553.86;108580;1269;22530;-73
2023/11/09 07:53:38;;;;;;;2.70;1.10;;;;;;;11.38;60.95;96552.88;108573;1269;22535;-73
2023/11/09 07:56:10;;;;;;;1.60;0.90;;;;;;;12.07;60.82;96548.45;108606;1275;25260;-73
2023/11/09 07:58:43;;;;;;;2.00;1.00;;;;;;;12.19;59.31;96543.22;108633;1269;22566;-74
2023/11/09 08:01:14;;;;;;;2.70;1.00;;;;;;;12.38;59.71;96544.46;108611;1275;22530;-74
2023/11/09 08:03:46;;;;;;;1.60;1.20;;;;;;;13.01;59.97;96546.08;108583;1275;22575;-74
2023/11/09 08:06:18;;;;;;;2.70;0.90;;;;;;;13.43;59.35;96542.58;108652;1275;22524;-73
2023/11/09 08:08:49;;;;;;;2.80;0.90;;;;;;;13.47;58.98;96540.00;108588;1269;24291;-74
2023/11/09 08:11:21;;;;;;;1.80;1.00;;;;;;;13.66;58.55;96534.80;108525;1268;22519;-74
2023/11/09 08:13:52;;;;;;;2.50;0.80;;;;;;;13.87;57.95;96528.15;108629;1272;24268;-73
2023/11/09 08:16:23;;;;;;;1.80;0.90;;;;;;;13.73;56.76;96524.67;108714;1275;22533;-74
2023/11/09 08:18:55;;;;;;;1.90;0.80;;;;;;;13.49;56.28;96519.80;108716;1274;22525;-74
2023/11/09 08:21:26;;;;;;;1.90;0.60;;;;;;;13.24;55.16;96517.71;108707;1272;22538;-74
2023/11/09 08:23:57;;;;;;;1.20;0.70;;;;;;;12.22;51.27;96515.40;108703;1275;24460;-74
2023/11/09 08:26:29;;;;;;;1.60;1.00;;;;;;;11.33;53.00;96518.16;108653;1271;22545;-74
2023/11/09 08:29:00;;;;;;;3.20;1.20;;;;;;;11.05;53.73;96519.98;108594;1275;24423;-74
2023/11/09 08:31:33;;;;;;;1.60;0.80;;;;;;;10.77;54.38;96524.21;108567;1268;22530;-74
2023/11/09 08:34:04;;;;;;;3.20;1.30;;;;;;;10.68;54.79;96521.86;108613;1275;22669;-74
2023/11/09 08:36:35;;;;;;;1.70;0.50;;;;;;;10.62;54.54;96515.55;108583;1272;22531;-74
2023/11/09 08:39:09;;;;;;;2.10;0.90;;;;;;;10.19;53.36;96511.05;108609;1275;25416;-74
2023/11/09 08:41:41;;;;;;;2.30;1.00;;;;;;;9.91;54.71;96503.36;108573;1273;22527;-74
2023/11/09 08:44:12;;;;;;;1.70;1.00;;;;;;;9.94;55.64;96503.98;108582;1272;25464;-74
2023/11/09 08:46:47;;;;;;;1.20;0.80;;;;;;;10.03;56.41;96501.89;108552;1275;22530;-74
2023/11/09 08:49:21;;;;;;;1.40;0.70;;;;;;;10.03;55.65;96501.32;108575;1271;25815;-74
2023/11/09 08:51:52;;;;;;;1.90;0.80;;;;;;;10.01;55.63;96499.84;108586;1275;22568;-74
2023/11/09 08:54:24;;;;;;;1.90;0.60;;;;;;;10.02;55.50;96497.93;108591;1275;22505;-74
2023/11/09 08:56:55;;;;;;;1.70;1.00;;;;;;;10.15;56.06;96503.60;108586;1275;22608;-74
2023/11/09 08:59:26;;;;;;;1.80;0.90;;;;;;;10.21;55.38;96499.65;108575;1272;23225;-73
2023/11/09 09:01:57;;;;;;;2.80;0.90;;;;;;;10.11;55.61;96505.27;108561;1253;22518;-73
2023/11/09 09:04:29;;;;;;;1.50;1.10;;;;;;;10.20;56.10;96504.73;108604;1269;22504;-74
2023/11/09 09:07:02;;;;;;;2.00;1.00;;;;;;;10.24;56.18;96506.94;108604;1269;22537;-74
2023/11/09 09:09:34;;;;;;;2.00;1.10;;;;;;;10.28;56.28;96504.31;108652;1272;22653;-74
2023/11/09 09:12:06;;;;;;;1.50;0.80;;;;;;;10.27;56.08;96500.92;108655;1275;22717;-74
2023/11/09 09:14:37;;;;;;;2.60;0.90;;;;;;;10.24;55.84;96500.10;108737;1272;26784;-74
2023/11/09 09:17:08;;;;;;;1.90;0.90;;;;;;;10.30;56.14;96501.54;108677;1275;22526;-74
2023/11/09 09:19:41;;;;;;;1.90;0.80;;;;;;;10.49;56.12;96501.27;108629;1275;22507;-73
2023/11/09 09:22:13;;;;;;;2.70;1.10;;;;;;;10.56;55.83;96496.42;108549;1275;22521;-74
2023/11/09 09:24:45;;;;;;;3.80;1.30;;;;;;;10.62;55.74;96493.45;108636;1275;22518;-74
2023/11/09 09:27:16;;;;;;;1.30;0.90;;;;;;;10.65;55.65;96490.75;108619;1275;22537;-73
2023/11/09 09:29:47;;;;;;;2.60;1.10;;;;;;;10.73;55.47;96489.68;108599;1271;24414;-73
2023/11/09 09:32:18;;;;;;;1.20;0.90;;;;;;;10.75;55.19;96482.19;108557;1272;23493;-74
2023/11/09 09:34:51;;;;;;;3.40;1.30;;;;;;;10.73;54.53;96475.95;108585;1259;22533;-73
2023/11/09 09:37:22;;;;;;;1.40;1.00;;;;;;;10.69;54.44;96476.52;108591;1275;22518;-73
2023/11/09 09:39:53;;;;;;;1.20;0.60;;;;;;;10.75;54.63;96470.40;108584;1272;22535;-73
2023/11/09 09:42:25;;;;;;;1.10;0.60;;;;;;;10.80;53.88;96474.95;108565;1275;23504;-74
2023/11/09 09:44:58;;;;;;;1.80;0.70;;;;;;;10.78;52.75;96470.16;108591;1275;22532;-74
2023/11/09 09:47:30;;;;;;;1.50;0.50;;;;;;;10.60;50.76;96458.48;108561;1275;22561;-73
2023/11/09 09:50:02;;;;;;;1.50;0.70;;;;;;;10.48;50.22;96450.28;108623;1275;22528;-73
2023/11/09 09:52:38;;;;;;;1.90;0.50;;;;;;;10.36;49.87;96446.25;108585;1271;22646;-73
2023/11/09 09:55:11;;;;;;;0.90;0.50;;;;;;;10.34;50.70;96448.41;108584;1271;22528;-74
2023/11/09 09:57:42;;;;;;;1.20;0.70;;;;;;;10.45;51.17;96459.80;108628;1275;22526;-73
2023/11/09 10:00:23;;;;;;;2.00;0.70;;;;;;;10.56;51.36;96449.98;108598;1275;25364;-74
2023/11/09 10:02:55;;;;;;;0.80;0.60;;;;;;;10.56;51.02;96452.69;108549;1275;22531;-73
2023/11/09 10:05:28;;;;;;;1.80;0.80;;;;;;;10.49;51.19;96451.33;108587;1275;24779;-73
2023/11/09 10:08:10;;;;;;;1.60;0.70;;;;;;;10.45;50.68;96447.34;108595;1275;24077;-73
2023/11/09 10:10:44;;;;;;;2.10;1.00;;;;;;;10.35;51.35;96441.82;108577;1275;23332;-74
2023/11/09 10:13:15;;;;;;;1.70;1.00;;;;;;;10.45;51.32;96445.17;108541;1272;34643;-74
2023/11/09 10:15:56;;;;;;;1.30;0.80;;;;;;;10.49;51.80;96435.48;108568;1275;22534;-74
2023/11/09 10:18:30;;;;;;;2.30;1.20;;;;;;;10.52;51.81;96431.73;108600;1275;24192;-73
2023/11/09 10:21:03;;;;;;;2.60;1.20;;;;;;;10.56;52.35;96420.19;108544;1272;22577;-74
2023/11/09 10:23:34;;;;;;;2.20;0.80;;;;;;;10.63;52.39;96415.96;108571;1275;25530;-73
2023/11/09 10:26:11;;;;;;;1.50;0.90;;;;;;;10.65;52.42;96412.39;108587;1269;22529;-74
2023/11/09 10:28:43;;;;;;;2.90;1.10;;;;;;;10.67;52.16;96413.75;108622;1271;22565;-74
2023/11/09 10:31:31;;;;;;;1.80;1.00;;;;;;;10.67;52.38;96410.20;108557;1269;22537;-74
2023/11/09 10:34:04;;;;;;;2.10;1.00;;;;;;;10.66;52.51;96414.08;108637;1275;22528;-73
2023/11/09 10:36:35;;;;;;;3.70;1.40;;;;;;;10.71;52.91;96407.25;108577;1272;25491;-74
2023/11/09 10:39:17;;;;;;;2.00;1.10;;;;;;;10.77;53.17;96402.34;108526;1275;22531;-73
2023/11/09 10:41:52;;;;;;;1.30;0.90;;;;;;;10.84;53.14;96389.90;108606;1274;25402;-73
2023/11/09 10:44:28;;;;;;;1.70;1.10;;;;;;;10.83;52.72;96400.62;108615;1275;22547;-73
2023/11/09 10:47:01;;;;;;;4.30;1.20;;;;;;;10.80;52.80;96396.56;108555;1275;22560;-73
2023/11/09 10:49:35;;;;;;;1.60;1.20;;;;;;;10.79;53.29;96385.82;108582;1275;25470;-73
2023/11/09 10:52:09;;;;;;;2.00;0.80;;;;;;;10.90;53.50;96389.51;108559;1253;22573;-74
2023/11/09 10:54:44;;;;;;;2.80;1.30;;;;;;;10.94;52.96;96378.94;108613;1275;24190;-73
2023/11/09 10:57:18;;;;;;;3.40;1.30;;;;;;;10.95;53.41;96377.91;108581;1275;24491;-73
2023/11/09 10:59:50;;;;;;;2.40;1.70;;;;;;;10.94;53.23;96380.37;108598;1272;22616;-73
2023/11/09 11:02:27;;;;;;;1.40;1.00;;;;;;;10.91;53.35;96377.55;108545;1271;24684;-73
2023/11/09 11:05:05;;;;;;;3.90;1.20;;;;;;;10.86;53.27;96380.05;108589;1272;22544;-73
2023/11/09 11:07:38;;;;;;;2.90;1.20;;;;;;;10.82;53.46;96386.36;108554;1275;23022;-74
2023/11/09 11:10:16;;;;;;;1.40;1.00;;;;;;;10.81;53.68;96387.71;108645;1275;22556;-73
2023/11/09 11:12:48;;;;;;;1.60;1.20;;;;;;;10.81;53.42;96374.29;108564;1275;24239;-73
2023/11/09 11:15:27;;;;;;;2.20;1.10;;;;;;;10.89;54.00;96373.66;108582;1275;22558;-74
2023/11/09 11:18:12;;;;;;;1.70;1.00;;;;;;;10.94;53.61;96374.21;108569;1275;22533;-73
2023/11/09 11:21:06;;;;;;;1.50;0.90;;;;;;;11.08;54.18;96370.64;108586;1275;22514;-74
2023/11/09 11:24:10;;;;;;;2.40;1.20;;;;;;;11.21;53.74;96369.02;108628;1275;26198;-73
2023/11/09 11:26:53;;;;;;;2.20;0.90;;;;;;;11.24;53.77;96370.20;108493;1275;24208;-73
2023/11/09 11:29:28;;;;;;;2.30;0.90;;;;;;;11.29;53.77;96366.46;108540;1275;22527;-73
2023/11/09 11:32:03;;;;;;;3.50;1.40;;;;;;;11.28;53.92;96366.97;108564;1275;25398;-73
2023/11/09 11:34:54;;;;;;;0.70;0.50;;;;;;;11.29;53.50;96368.38;108572;1275;22528;-73
2023/11/09 11:37:29;;;;;;;2.60;0.80;;;;;;;11.15;53.25;96363.16;108578;1272;22527;-73
2023/11/09 11:40:05;;;;;;;2.10;1.10;;;;;;;11.10;53.46;96365.20;108572;1269;22571;-74
2023/11/09 11:42:38;;;;;;;2.00;1.10;;;;;;;11.06;53.38;96366.22;108603;1272;22522;-73
2023/11/09 11:45:11;;;;;;;2.20;1.10;;;;;;;11.02;53.35;96365.91;108458;1268;137063;-73
2023/11/09 11:47:45;;;;;;;1.40;0.60;;;;;;;10.99;53.59;96364.41;108639;1267;25971;-73
2023/11/09 11:50:18;;;;;;;2.40;1.00;;;;;;;10.97;53.37;96364.53;108566;1271;22550;-73
2023/11/09 11:52:50;;;;;;;1.30;0.80;;;;;;;10.91;53.47;96362.91;108564;1275;26450;-73
2023/11/09 11:55:23;;;;;;;2.00;0.70;;;;;;;10.87;53.61;96363.98;108581;1275;22532;-74
2023/11/09 11:58:05;;;;;;;3.80;1.00;;;;;;;10.84;53.63;96360.62;108591;1275;22524;-73
2023/11/09 12:00:41;;;;;;;1.00;0.90;;;;;;;10.85;53.82;96362.94;108566;1275;22532;-73
2023/11/09 12:03:14;;;;;;;2.20;1.20;;;;;;;10.94;53.98;96356.56;108572;1272;22686;-73
2023/11/09 12:05:53;;;;;;;2.00;1.10;;;;;;;11.07;54.18;96346.79;108451;1272;22707;-73